Time;durP1;ratioP1;P1;durP2;ratioP2;P2;SDS_P1;SDS_P2;PMS_P1;PMS_P2;Temp;Humidity;BMP_temperature;BMP_pressure;BME280_temperature;BME280_humidity;BME280_pressure;Samples;Min_cycle;Max_cycle;Signal;HPM_P1;HPM_P2
2022/11/27 00:02:15;;;;;;;182.73;31.05;;;;;;;;;;5014622;28;20267;-80
2022/11/27 00:04:42;;;;;;;246.75;39.00;;;;;;;;;;5014265;28;20621;-79
2022/11/27 00:07:11;;;;;;;204.15;31.13;;;;;;;;;;5013703;28;20213;-79
2022/11/27 00:09:38;;;;;;;143.93;28.15;;;;;;;;;;5012271;28;20737;-79
2022/11/27 00:12:05;;;;;;;156.75;29.58;;;;;;;;;;5012652;28;20211;-79
2022/11/27 00:14:32;;;;;;;216.60;33.10;;;;;;;;;;5012024;28;20267;-78
2022/11/27 00:16:59;;;;;;;170.75;30.10;;;;;;;;;;5012015;28;20417;-78
2022/11/27 00:19:28;;;;;;;187.93;32.03;;;;;;;;;;5011464;28;20227;-78
2022/11/27 00:21:55;;;;;;;191.38;30.90;;;;;;;;;;5012329;28;20207;-78
2022/11/27 00:24:23;;;;;;;227.93;35.55;;;;;;;;;;5012122;28;20227;-80
2022/11/27 00:26:50;;;;;;;237.27;34.80;;;;;;;;;;5012167;28;20307;-78
2022/11/27 00:29:17;;;;;;;204.27;31.60;;;;;;;;;;5011113;28;20227;-78
2022/11/27 00:31:45;;;;;;;186.82;30.08;;;;;;;;;;5012133;28;20634;-77
2022/11/27 00:34:12;;;;;;;155.75;29.70;;;;;;;;;;5011865;28;20267;-76
2022/11/27 00:36:39;;;;;;;250.88;36.38;;;;;;;;;;5011824;28;20238;-76
2022/11/27 00:39:07;;;;;;;176.77;30.40;;;;;;;;;;5011079;28;20261;-78
2022/11/27 00:41:36;;;;;;;162.85;30.33;;;;;;;;;;5011859;28;20298;-75
2022/11/27 00:44:03;;;;;;;168.85;30.27;;;;;;;;;;5012128;28;20223;-76
2022/11/27 00:46:31;;;;;;;231.50;36.08;;;;;;;;;;5012000;28;20235;-77
2022/11/27 00:48:59;;;;;;;251.70;37.78;;;;;;;;;;5010992;28;20277;-77
2022/11/27 00:51:27;;;;;;;207.95;36.42;;;;;;;;;;5011964;28;20217;-76
2022/11/27 00:53:54;;;;;;;205.15;33.42;;;;;;;;;;5011892;28;20293;-76
2022/11/27 00:56:23;;;;;;;174.23;27.90;;;;;;;;;;5011559;28;20211;-76
2022/11/27 00:58:51;;;;;;;229.27;34.65;;;;;;;;;;5011075;28;20322;-76
2022/11/27 01:01:20;;;;;;;147.13;27.08;;;;;;;;;;5011878;28;20661;-75
2022/11/27 01:03:47;;;;;;;235.98;34.35;;;;;;;;;;5011719;28;20314;-77
2022/11/27 01:06:15;;;;;;;240.02;35.13;;;;;;;;;;5011546;28;20218;-75
2022/11/27 01:08:43;;;;;;;182.60;32.83;;;;;;;;;;5010761;28;20262;-76
2022/11/27 01:11:13;;;;;;;157.73;30.98;;;;;;;;;;5011374;28;20298;-76
2022/11/27 01:13:40;;;;;;;258.80;34.72;;;;;;;;;;5011798;28;20293;-76
2022/11/27 01:16:10;;;;;;;262.13;37.55;;;;;;;;;;5011751;28;20298;-76
2022/11/27 01:18:38;;;;;;;162.15;27.63;;;;;;;;;;5010780;28;20688;-76
2022/11/27 01:21:05;;;;;;;167.38;30.48;;;;;;;;;;5011420;28;20218;-75
2022/11/27 01:23:33;;;;;;;215.70;34.85;;;;;;;;;;5011323;28;20242;-76
2022/11/27 01:26:00;;;;;;;223.52;32.30;;;;;;;;;;5011601;28;20298;-76
2022/11/27 01:28:28;;;;;;;223.85;31.63;;;;;;;;;;5011297;28;20222;-77
2022/11/27 01:30:55;;;;;;;236.10;33.22;;;;;;;;;;5013600;28;20643;-75
2022/11/27 01:33:23;;;;;;;218.00;31.83;;;;;;;;;;5014968;28;20208;-76
2022/11/27 01:35:55;;;;;;;160.40;28.00;;;;;;;;;;5014856;28;20211;-76
2022/11/27 01:38:22;;;;;;;244.98;37.15;;;;;;;;;;5014532;28;20218;-76
2022/11/27 01:40:49;;;;;;;286.73;36.95;;;;;;;;;;5014059;28;20298;-76
2022/11/27 01:43:17;;;;;;;269.60;37.78;;;;;;;;;;5014751;28;20223;-76
2022/11/27 01:45:44;;;;;;;291.35;37.17;;;;;;;;;;5014792;28;20242;-76
2022/11/27 01:48:13;;;;;;;292.85;35.00;;;;;;;;;;5014294;28;20249;-76
2022/11/27 01:50:42;;;;;;;205.10;30.30;;;;;;;;;;5013894;28;20294;-75
2022/11/27 01:53:12;;;;;;;318.17;39.15;;;;;;;;;;5014791;28;20304;-76
2022/11/27 01:55:41;;;;;;;282.38;35.80;;;;;;;;;;5014691;28;20257;-76
2022/11/27 01:58:10;;;;;;;233.07;35.47;;;;;;;;;;5014438;28;20690;-75
2022/11/27 02:00:37;;;;;;;250.45;31.67;;;;;;;;;;5014012;28;20648;-76
2022/11/27 02:03:04;;;;;;;180.43;30.85;;;;;;;;;;5014191;28;20290;-76
2022/11/27 02:05:32;;;;;;;203.80;28.50;;;;;;;;;;5014584;28;20235;-76
2022/11/27 02:08:03;;;;;;;239.18;32.88;;;;;;;;;;5014435;28;20556;-76
2022/11/27 02:10:34;;;;;;;118.82;22.08;;;;;;;;;;5013634;28;20215;-77
2022/11/27 02:13:04;;;;;;;217.98;30.02;;;;;;;;;;5014389;28;20230;-76
2022/11/27 02:15:35;;;;;;;243.35;31.77;;;;;;;;;;5014364;28;20295;-76
2022/11/27 02:18:05;;;;;;;253.50;32.35;;;;;;;;;;5014295;28;20301;-76
2022/11/27 02:20:39;;;;;;;172.90;26.23;;;;;;;;;;5013610;28;20298;-76
2022/11/27 02:23:14;;;;;;;144.68;25.25;;;;;;;;;;5014201;28;20209;-76
2022/11/27 02:25:49;;;;;;;242.25;31.80;;;;;;;;;;5013991;28;20307;-76
2022/11/27 02:28:23;;;;;;;267.85;37.88;;;;;;;;;;5013668;28;20210;-76
2022/11/27 02:30:54;;;;;;;197.43;29.67;;;;;;;;;;5013300;28;20806;-76
2022/11/27 02:33:22;;;;;;;152.15;24.55;;;;;;;;;;5013966;28;20243;-76
2022/11/27 02:35:51;;;;;;;125.70;22.77;;;;;;;;;;5013872;28;20238;-76
2022/11/27 02:38:22;;;;;;;125.47;25.17;;;;;;;;;;5013601;28;20211;-76
2022/11/27 02:40:51;;;;;;;182.30;28.70;;;;;;;;;;5008808;28;20306;-76
2022/11/27 02:43:20;;;;;;;207.68;33.63;;;;;;;;;;5013241;28;20294;-76
2022/11/27 02:45:49;;;;;;;173.38;25.83;;;;;;;;;;5013595;28;20239;-76
2022/11/27 02:48:19;;;;;;;185.40;27.77;;;;;;;;;;5013073;28;20211;-76
2022/11/27 02:50:46;;;;;;;256.38;33.75;;;;;;;;;;5012887;28;20207;-76
2022/11/27 02:53:16;;;;;;;219.18;28.02;;;;;;;;;;5013405;28;20297;-76
2022/11/27 02:55:44;;;;;;;198.23;30.23;;;;;;;;;;5013611;28;20238;-76
2022/11/27 02:58:15;;;;;;;220.27;28.50;;;;;;;;;;5013197;28;20218;-76
2022/11/27 03:00:44;;;;;;;158.82;27.50;;;;;;;;;;5012604;28;20301;-76
2022/11/27 03:03:13;;;;;;;195.70;29.20;;;;;;;;;;5013122;28;20693;-76
2022/11/27 03:05:43;;;;;;;150.38;24.05;;;;;;;;;;5013385;28;20206;-76
2022/11/27 03:08:14;;;;;;;120.45;23.30;;;;;;;;;;5012975;28;20246;-76
2022/11/27 03:10:44;;;;;;;181.07;26.88;;;;;;;;;;5012392;28;20253;-75
2022/11/27 03:13:11;;;;;;;156.20;24.80;;;;;;;;;;5012925;28;20307;-76
2022/11/27 03:15:41;;;;;;;130.05;23.25;;;;;;;;;;5013244;28;20226;-76
2022/11/27 03:18:12;;;;;;;79.60;18.13;;;;;;;;;;5012842;28;20225;-76
2022/11/27 03:20:41;;;;;;;159.85;27.30;;;;;;;;;;5012620;28;20211;-76
2022/11/27 03:23:10;;;;;;;81.47;17.95;;;;;;;;;;5012906;28;20815;-76
2022/11/27 03:25:37;;;;;;;120.85;22.33;;;;;;;;;;5012867;28;20231;-77
2022/11/27 03:28:06;;;;;;;113.90;20.27;;;;;;;;;;5012614;28;20242;-76
2022/11/27 03:30:33;;;;;;;216.63;26.55;;;;;;;;;;5012225;28;20315;-76
2022/11/27 03:33:01;;;;;;;172.30;25.38;;;;;;;;;;5012781;28;20647;-76
2022/11/27 03:35:30;;;;;;;116.85;22.10;;;;;;;;;;5012821;28;20285;-76
2022/11/27 03:37:57;;;;;;;95.88;19.98;;;;;;;;;;5012645;28;20214;-76
2022/11/27 03:40:28;;;;;;;82.75;18.58;;;;;;;;;;5011832;28;20255;-76
2022/11/27 03:42:58;;;;;;;139.75;22.40;;;;;;;;;;5012774;28;20643;-76
2022/11/27 03:45:30;;;;;;;140.23;27.55;;;;;;;;;;5012674;28;20318;-76
2022/11/27 03:48:04;;;;;;;88.97;17.75;;;;;;;;;;5012490;28;20679;-76
2022/11/27 03:50:34;;;;;;;104.45;24.25;;;;;;;;;;5011712;28;20247;-76
2022/11/27 03:53:05;;;;;;;123.55;22.17;;;;;;;;;;5012597;28;20246;-76
2022/11/27 03:55:37;;;;;;;123.80;22.25;;;;;;;;;;5012539;28;20241;-76
2022/11/27 03:58:06;;;;;;;104.45;21.80;;;;;;;;;;5012387;28;20246;-76
2022/11/27 04:00:35;;;;;;;160.93;25.90;;;;;;;;;;5011577;28;20246;-76
2022/11/27 04:03:03;;;;;;;183.68;28.27;;;;;;;;;;5012273;28;20250;-76
2022/11/27 04:05:30;;;;;;;96.38;20.40;;;;;;;;;;5012108;28;20266;-76
2022/11/27 04:07:57;;;;;;;99.72;19.17;;;;;;;;;;5012245;28;20208;-76
2022/11/27 04:10:24;;;;;;;163.52;23.48;;;;;;;;;;5011692;28;20323;-76
2022/11/27 04:12:53;;;;;;;97.25;20.13;;;;;;;;;;5012233;28;20297;-76
2022/11/27 04:15:20;;;;;;;83.90;19.23;;;;;;;;;;5012537;28;20237;-76
2022/11/27 04:17:47;;;;;;;85.75;19.60;;;;;;;;;;5012017;28;20619;-76
2022/11/27 04:20:15;;;;;;;100.45;19.52;;;;;;;;;;5011464;28;20312;-77
2022/11/27 04:22:42;;;;;;;78.28;17.98;;;;;;;;;;5011993;28;20767;-76
2022/11/27 04:25:10;;;;;;;107.30;20.70;;;;;;;;;;5011946;28;20319;-76
2022/11/27 04:27:37;;;;;;;140.25;23.45;;;;;;;;;;5012076;28;20242;-76
2022/11/27 04:30:06;;;;;;;87.20;18.60;;;;;;;;;;5011180;28;20259;-76
2022/11/27 04:32:33;;;;;;;80.95;18.08;;;;;;;;;;5011890;28;20294;-76
2022/11/27 04:35:01;;;;;;;109.45;22.77;;;;;;;;;;5012104;28;20207;-77
2022/11/27 04:37:28;;;;;;;146.70;22.73;;;;;;;;;;5011867;28;20211;-76
2022/11/27 04:39:55;;;;;;;123.85;23.35;;;;;;;;;;5011119;28;20314;-77
2022/11/27 04:42:22;;;;;;;133.00;23.73;;;;;;;;;;5011835;28;20243;-77
2022/11/27 04:44:49;;;;;;;130.55;26.08;;;;;;;;;;5011658;28;20314;-76
2022/11/27 04:47:18;;;;;;;148.13;24.25;;;;;;;;;;5012036;28;20203;-76
2022/11/27 04:49:45;;;;;;;97.38;22.45;;;;;;;;;;5010933;28;20266;-76
2022/11/27 04:52:12;;;;;;;115.90;22.85;;;;;;;;;;5012048;28;20655;-76
2022/11/27 04:54:39;;;;;;;102.57;17.77;;;;;;;;;;5012252;28;20235;-76
2022/11/27 04:57:07;;;;;;;103.55;18.42;;;;;;;;;;5012053;28;20294;-76
2022/11/27 04:59:34;;;;;;;128.35;19.70;;;;;;;;;;5011191;28;20223;-76
2022/11/27 05:02:01;;;;;;;89.80;17.50;;;;;;;;;;5011996;28;20701;-76
2022/11/27 05:04:30;;;;;;;123.38;21.65;;;;;;;;;;5012330;28;20281;-76
2022/11/27 05:06:57;;;;;;;146.20;22.38;;;;;;;;;;5015455;28;20249;-76
2022/11/27 05:09:24;;;;;;;171.23;23.35;;;;;;;;;;5014717;28;20233;-76
2022/11/27 05:11:51;;;;;;;173.13;22.85;;;;;;;;;;5015250;28;20852;-76
2022/11/27 05:14:20;;;;;;;121.18;20.65;;;;;;;;;;5015338;28;20298;-76
2022/11/27 05:16:48;;;;;;;139.50;21.60;;;;;;;;;;5015433;28;20266;-76
2022/11/27 05:19:16;;;;;;;161.35;23.75;;;;;;;;;;5014621;28;20314;-76
2022/11/27 05:21:45;;;;;;;227.68;26.40;;;;;;;;;;5015215;28;20302;-76
2022/11/27 05:24:13;;;;;;;143.13;25.35;;;;;;;;;;5015227;28;20740;-76
2022/11/27 05:26:40;;;;;;;194.25;24.13;;;;;;;;;;5015029;28;20255;-76
2022/11/27 05:29:08;;;;;;;203.75;23.50;;;;;;;;;;5014379;28;20581;-76
2022/11/27 05:31:35;;;;;;;204.40;24.30;;;;;;;;;;5015158;28;20643;-76
2022/11/27 05:34:02;;;;;;;172.98;20.65;;;;;;;;;;5015021;28;20294;-76
2022/11/27 05:36:30;;;;;;;101.25;18.50;;;;;;;;;;5014976;28;20294;-76
2022/11/27 05:38:59;;;;;;;143.63;22.92;;;;;;;;;;5013933;28;20664;-76
2022/11/27 05:41:26;;;;;;;144.18;22.10;;;;;;;;;;5015082;28;20267;-76
2022/11/27 05:43:53;;;;;;;160.30;23.63;;;;;;;;;;5015207;28;20207;-76
2022/11/27 05:46:21;;;;;;;155.70;21.13;;;;;;;;;;5014832;28;20686;-77
2022/11/27 05:48:48;;;;;;;153.80;22.52;;;;;;;;;;5013824;28;20238;-77
2022/11/27 05:51:16;;;;;;;134.45;23.52;;;;;;;;;;5014618;28;20242;-77
2022/11/27 05:53:43;;;;;;;148.43;23.48;;;;;;;;;;5014574;28;20285;-77
2022/11/27 05:56:13;;;;;;;136.75;21.33;;;;;;;;;;5014911;28;20672;-77
2022/11/27 05:58:42;;;;;;;104.18;17.90;;;;;;;;;;5013816;28;20233;-77
2022/11/27 06:01:10;;;;;;;162.82;21.00;;;;;;;;;;5014463;28;20242;-77
2022/11/27 06:03:38;;;;;;;146.75;22.95;;;;;;;;;;5014484;28;20298;-76
2022/11/27 06:06:06;;;;;;;150.23;24.50;;;;;;;;;;5014170;28;20230;-77
2022/11/27 06:08:33;;;;;;;76.05;16.08;;;;;;;;;;5013974;28;20227;-77
2022/11/27 06:11:00;;;;;;;78.82;16.70;;;;;;;;;;5014457;28;20696;-77
2022/11/27 06:13:29;;;;;;;96.10;17.80;;;;;;;;;;5014356;28;20756;-77
2022/11/27 06:15:56;;;;;;;140.77;20.20;;;;;;;;;;5014170;28;20207;-77
2022/11/27 06:18:23;;;;;;;127.55;21.27;;;;;;;;;;5014436;28;20314;-76
2022/11/27 06:20:51;;;;;;;211.43;24.90;;;;;;;;;;5013506;28;20751;-77
2022/11/27 06:23:18;;;;;;;89.38;16.45;;;;;;;;;;5014069;28;20302;-77
2022/11/27 06:25:45;;;;;;;155.52;23.48;;;;;;;;;;5014089;28;20321;-77
2022/11/27 06:28:12;;;;;;;76.00;15.30;;;;;;;;;;5013871;28;20302;-77
2022/11/27 06:30:40;;;;;;;83.43;17.10;;;;;;;;;;5013363;28;20203;-77
2022/11/27 06:33:08;;;;;;;118.20;18.35;;;;;;;;;;5013885;28;20298;-77
2022/11/27 06:35:35;;;;;;;76.75;16.63;;;;;;;;;;5013786;28;20245;-77
2022/11/27 06:38:02;;;;;;;88.30;17.90;;;;;;;;;;5013870;28;20310;-77
2022/11/27 06:40:29;;;;;;;99.70;18.00;;;;;;;;;;5013130;28;20229;-77
2022/11/27 06:42:57;;;;;;;115.35;19.90;;;;;;;;;;5014111;28;20293;-77
2022/11/27 06:45:24;;;;;;;91.55;18.23;;;;;;;;;;5013579;28;20322;-77
2022/11/27 06:47:53;;;;;;;104.35;20.23;;;;;;;;;;5013456;28;20302;-76
2022/11/27 06:50:20;;;;;;;100.72;19.38;;;;;;;;;;5012695;28;20321;-77
2022/11/27 06:52:47;;;;;;;90.72;16.35;;;;;;;;;;5013708;28;20236;-78
2022/11/27 06:55:14;;;;;;;105.00;16.92;;;;;;;;;;5013539;28;20286;-78
2022/11/27 06:57:41;;;;;;;126.05;20.73;;;;;;;;;;5013665;28;20290;-77
2022/11/27 07:00:09;;;;;;;98.90;19.70;;;;;;;;;;5012430;28;20271;-78
2022/11/27 07:02:36;;;;;;;80.13;17.17;;;;;;;;;;5013468;28;20257;-78
2022/11/27 07:05:05;;;;;;;82.70;18.65;;;;;;;;;;5013643;28;20322;-78
2022/11/27 07:07:32;;;;;;;88.05;18.30;;;;;;;;;;5014348;28;20239;-79
2022/11/27 07:09:59;;;;;;;81.93;17.70;;;;;;;;;;5014707;28;20263;-79
2022/11/27 07:12:26;;;;;;;85.63;16.48;;;;;;;;;;5016755;28;20690;-80
2022/11/27 07:14:54;;;;;;;74.72;14.68;;;;;;;;;;5017629;28;20204;-80
2022/11/27 07:17:21;;;;;;;127.18;19.98;;;;;;;;;;5019017;28;20245;-80
2022/11/27 07:19:48;;;;;;;109.18;19.02;;;;;;;;;;5018299;28;20315;-81
2022/11/27 07:22:16;;;;;;;90.75;16.85;;;;;;;;;;5020366;28;20231;-82
2022/11/27 07:24:43;;;;;;;93.50;18.27;;;;;;;;;;5019610;28;20738;-81
2022/11/27 07:27:11;;;;;;;112.13;19.88;;;;;;;;;;5019257;28;20286;-82
2022/11/27 07:29:38;;;;;;;115.32;20.00;;;;;;;;;;5019004;28;20294;-83
2022/11/27 07:32:05;;;;;;;96.15;19.55;;;;;;;;;;5019445;28;20294;-83
2022/11/27 07:34:32;;;;;;;107.85;22.27;;;;;;;;;;5019473;28;20215;-82
2022/11/27 07:36:59;;;;;;;89.32;18.00;;;;;;;;;;5019087;28;20668;-82
2022/11/27 07:39:28;;;;;;;96.18;19.08;;;;;;;;;;5017494;28;20762;-82
2022/11/27 07:41:55;;;;;;;89.07;21.30;;;;;;;;;;5019189;28;20302;-82
2022/11/27 07:44:22;;;;;;;83.82;18.00;;;;;;;;;;5019204;28;20231;-82
2022/11/27 07:46:49;;;;;;;95.82;17.83;;;;;;;;;;5019726;28;20273;-81
2022/11/27 07:49:16;;;;;;;88.75;19.20;;;;;;;;;;5019395;28;20321;-81
2022/11/27 07:51:43;;;;;;;98.53;18.33;;;;;;;;;;5021319;28;20207;-81
2022/11/27 07:54:11;;;;;;;124.72;22.48;;;;;;;;;;5023617;28;20608;-81
2022/11/27 07:56:39;;;;;;;103.47;18.23;;;;;;;;;;5024724;28;20806;-81
2022/11/27 07:59:06;;;;;;;97.05;18.73;;;;;;;;;;5024818;28;20290;-80
2022/11/27 08:01:33;;;;;;;84.68;18.23;;;;;;;;;;5025599;28;20204;-80
2022/11/27 08:04:01;;;;;;;88.15;18.10;;;;;;;;;;5026095;28;20634;-80
2022/11/27 08:06:28;;;;;;;79.22;18.20;;;;;;;;;;5026457;28;20231;-80
2022/11/27 08:08:56;;;;;;;81.72;18.52;;;;;;;;;;5024961;28;20731;-80
2022/11/27 08:11:24;;;;;;;79.88;19.42;;;;;;;;;;5025801;28;20357;-80
2022/11/27 08:13:56;;;;;;;79.82;18.48;;;;;;;;;;5025518;28;20207;-81
2022/11/27 08:16:23;;;;;;;84.72;19.85;;;;;;;;;;5025939;28;20676;-81
2022/11/27 08:18:51;;;;;;;84.38;21.15;;;;;;;;;;5025591;28;20587;-81
2022/11/27 08:21:18;;;;;;;80.45;21.10;;;;;;;;;;5025787;28;20230;-81
2022/11/27 08:23:45;;;;;;;87.07;22.75;;;;;;;;;;5026924;28;20211;-81
2022/11/27 08:26:13;;;;;;;79.60;19.83;;;;;;;;;;5027011;28;20237;-81
2022/11/27 08:28:40;;;;;;;85.55;20.73;;;;;;;;;;5025486;28;20666;-80
2022/11/27 08:31:10;;;;;;;82.13;21.45;;;;;;;;;;5026525;28;20207;-80
2022/11/27 08:33:38;;;;;;;84.00;22.27;;;;;;;;;;5025765;28;20234;-80
2022/11/27 08:36:05;;;;;;;79.75;19.67;;;;;;;;;;5025240;28;20207;-81
2022/11/27 08:38:32;;;;;;;83.72;20.25;;;;;;;;;;5021315;28;20334;-81
2022/11/27 08:41:00;;;;;;;84.22;21.88;;;;;;;;;;5024678;28;20234;-81
2022/11/27 08:43:27;;;;;;;90.05;23.75;;;;;;;;;;5025253;28;20734;-81
2022/11/27 08:45:55;;;;;;;86.93;23.15;;;;;;;;;;5023703;28;20223;-81
2022/11/27 08:48:24;;;;;;;94.80;24.67;;;;;;;;;;5023290;28;20222;-81
2022/11/27 08:50:52;;;;;;;87.90;24.00;;;;;;;;;;5021938;28;20239;-81
2022/11/27 08:53:19;;;;;;;93.80;24.75;;;;;;;;;;5021360;28;20238;-80
2022/11/27 08:55:46;;;;;;;89.72;24.13;;;;;;;;;;5016847;28;20249;-78
2022/11/27 08:58:14;;;;;;;90.72;26.20;;;;;;;;;;5015526;28;20254;-77
2022/11/27 09:00:41;;;;;;;90.40;27.58;;;;;;;;;;5014906;28;20203;-77
2022/11/27 09:03:08;;;;;;;94.10;27.85;;;;;;;;;;5015431;28;20210;-77
2022/11/27 09:05:37;;;;;;;92.57;27.48;;;;;;;;;;5015882;28;20262;-78
2022/11/27 09:08:04;;;;;;;91.80;26.70;;;;;;;;;;5016045;28;20294;-78
2022/11/27 09:10:32;;;;;;;91.88;27.75;;;;;;;;;;5015658;28;20297;-79
2022/11/27 09:12:59;;;;;;;89.07;27.08;;;;;;;;;;5016408;28;20262;-78
2022/11/27 09:15:26;;;;;;;95.22;28.52;;;;;;;;;;5016126;28;20207;-79
2022/11/27 09:17:54;;;;;;;87.60;26.02;;;;;;;;;;5015781;28;20226;-78
2022/11/27 09:20:21;;;;;;;93.50;26.88;;;;;;;;;;5015177;28;20335;-78
2022/11/27 09:22:49;;;;;;;91.70;26.55;;;;;;;;;;5015856;28;20250;-78
2022/11/27 09:25:17;;;;;;;93.95;27.88;;;;;;;;;;5015328;28;20215;-78
2022/11/27 09:27:44;;;;;;;86.18;25.42;;;;;;;;;;5015354;28;20295;-78
2022/11/27 09:30:12;;;;;;;89.10;27.20;;;;;;;;;;5014453;28;20255;-78
2022/11/27 09:32:39;;;;;;;84.35;26.90;;;;;;;;;;5015313;28;20248;-78
2022/11/27 09:35:06;;;;;;;79.63;23.63;;;;;;;;;;5015239;28;20210;-78
2022/11/27 09:37:34;;;;;;;83.70;22.25;;;;;;;;;;5015107;28;20214;-78
2022/11/27 09:40:02;;;;;;;75.20;17.63;;;;;;;;;;5014254;28;20314;-79
2022/11/27 09:42:38;;;;;;;73.93;18.20;;;;;;;;;;5014822;28;20539;-78
2022/11/27 09:45:08;;;;;;;68.47;14.27;;;;;;;;;;5014893;28;20454;-79
2022/11/27 09:47:40;;;;;;;69.33;13.37;;;;;;;;;;5015039;28;20450;-80
2022/11/27 09:50:09;;;;;;;71.80;13.33;;;;;;;;;;5013697;28;20496;-79
2022/11/27 09:52:39;;;;;;;67.40;11.37;;;;;;;;;;5016174;28;20450;-80
2022/11/27 09:55:11;;;;;;;65.77;11.83;;;;;;;;;;5016805;28;20451;-78
2022/11/27 09:57:40;;;;;;;67.50;11.67;;;;;;;;;;5015229;28;20494;-79
2022/11/27 10:00:12;;;;;;;66.87;11.93;;;;;;;;;;5015681;28;20857;-82
2022/11/27 10:02:39;;;;;;;66.00;12.07;;;;;;;;;;5018356;28;20872;-81
2022/11/27 10:05:14;;;;;;;64.70;11.20;;;;;;;;;;5018954;28;20870;-83
2022/11/27 10:07:47;;;;;;;65.80;10.70;;;;;;;;;;5019874;28;20532;-83
2022/11/27 10:10:26;;;;;;;67.43;11.93;;;;;;;;;;5019703;28;20533;-83
2022/11/27 10:13:00;;;;;;;65.30;11.50;;;;;;;;;;5020908;28;20879;-83
2022/11/27 10:15:32;;;;;;;66.07;10.80;;;;;;;;;;5021822;28;20486;-82
2022/11/27 10:18:02;;;;;;;65.10;9.70;;;;;;;;;;5026595;28;20458;-81
2022/11/27 10:20:32;;;;;;;64.23;9.90;;;;;;;;;;5029142;28;20489;-79
2022/11/27 10:23:02;;;;;;;64.73;9.03;;;;;;;;;;5031566;28;20454;-81
2022/11/27 10:25:34;;;;;;;65.33;8.57;;;;;;;;;;5031624;28;20474;-80
2022/11/27 10:28:04;;;;;;;64.80;8.70;;;;;;;;;;5031641;28;20516;-80
2022/11/27 10:30:32;;;;;;;63.33;8.67;;;;;;;;;;5030070;28;20971;-80
2022/11/27 10:33:01;;;;;;;64.67;9.10;;;;;;;;;;5027546;28;20489;-80
2022/11/27 10:35:29;;;;;;;63.23;8.50;;;;;;;;;;5033285;28;20454;-80
2022/11/27 10:37:58;;;;;;;64.00;8.03;;;;;;;;;;5021793;28;20469;-79
2022/11/27 10:40:26;;;;;;;63.57;8.57;;;;;;;;;;5018701;28;20561;-78
2022/11/27 10:42:58;;;;;;;63.10;7.87;;;;;;;;;;5015931;28;20485;-78
2022/11/27 10:45:28;;;;;;;61.73;7.27;;;;;;;;;;5013759;28;20485;-78
2022/11/27 10:47:56;;;;;;;61.40;6.53;;;;;;;;;;5013574;28;20534;-78
2022/11/27 10:50:23;;;;;;;63.80;7.00;;;;;;;;;;5014574;28;20505;-78
2022/11/27 10:52:54;;;;;;;60.97;6.30;;;;;;;;;;5014082;28;20485;-77
2022/11/27 10:55:26;;;;;;;60.60;5.77;;;;;;;;;;5013683;28;20525;-77
2022/11/27 10:58:03;;;;;;;60.87;5.77;;;;;;;;;;5013923;28;20525;-77
2022/11/27 11:00:30;;;;;;;59.70;5.10;;;;;;;;;;5012752;28;20450;-78
2022/11/27 11:03:01;;;;;;;62.20;6.57;;;;;;;;;;5012574;28;20537;-77
2022/11/27 11:05:29;;;;;;;60.47;5.00;;;;;;;;;;5013455;28;20819;-77
2022/11/27 11:07:57;;;;;;;60.80;5.37;;;;;;;;;;5013388;28;20489;-77
2022/11/27 11:10:29;;;;;;;63.20;7.60;;;;;;;;;;5012554;28;21038;-77
2022/11/27 11:13:14;;;;;;;60.67;5.47;;;;;;;;;;5013361;28;20454;-77
2022/11/27 11:15:48;;;;;;;59.37;4.77;;;;;;;;;;5013500;28;20457;-77
2022/11/27 11:18:17;;;;;;;59.07;4.50;;;;;;;;;;5013023;28;20955;-77
2022/11/27 11:20:47;;;;;;;60.30;4.70;;;;;;;;;;5012301;28;20454;-77
2022/11/27 11:23:19;;;;;;;60.73;5.00;;;;;;;;;;5013410;28;20489;-77
2022/11/27 11:25:49;;;;;;;59.70;5.00;;;;;;;;;;5013108;28;20476;-77
2022/11/27 11:28:19;;;;;;;59.47;4.77;;;;;;;;;;5012773;28;21010;-77
2022/11/27 11:30:53;;;;;;;61.90;6.30;;;;;;;;;;5012095;28;20450;-77
2022/11/27 11:33:20;;;;;;;63.00;4.33;;;;;;;;;;5012814;28;20489;-77
2022/11/27 11:35:52;;;;;;;60.97;4.77;;;;;;;;;;5012950;28;20898;-77
2022/11/27 11:38:22;;;;;;;61.27;4.80;;;;;;;;;;5012807;28;20966;-77
2022/11/27 11:40:57;;;;;;;58.90;4.23;;;;;;;;;;5012147;28;20908;-77
2022/11/27 11:43:27;;;;;;;60.50;4.67;;;;;;;;;;5012621;28;20532;-77
2022/11/27 11:45:55;;;;;;;59.47;4.30;;;;;;;;;;5012406;28;20456;-77
2022/11/27 11:48:23;;;;;;;59.27;4.00;;;;;;;;;;5012420;28;20469;-77
2022/11/27 11:50:54;;;;;;;60.07;5.03;;;;;;;;;;5011977;28;20450;-78
2022/11/27 11:53:27;;;;;;;59.60;4.57;;;;;;;;;;5012581;28;20883;-77
2022/11/27 11:56:00;;;;;;;59.70;4.60;;;;;;;;;;5012453;28;20500;-76
2022/11/27 11:58:36;;;;;;;58.67;4.17;;;;;;;;;;5012355;28;20831;-75
2022/11/27 12:01:11;;;;;;;59.67;4.33;;;;;;;;;;5012623;28;20496;-77
2022/11/27 12:03:42;;;;;;;59.23;4.37;;;;;;;;;;5012464;28;20874;-77
2022/11/27 12:06:26;;;;;;;59.17;3.97;;;;;;;;;;5012252;28;20482;-78
2022/11/27 12:08:59;;;;;;;60.70;4.60;;;;;;;;;;5011322;28;20549;-77
2022/11/27 12:11:30;;;;;;;60.40;4.27;;;;;;;;;;5012278;28;20504;-78
2022/11/27 12:14:10;;;;;;;59.80;4.27;;;;;;;;;;5012268;28;20446;-79
2022/11/27 12:16:41;;;;;;;58.87;4.20;;;;;;;;;;5012261;28;20951;-76
2022/11/27 12:19:27;;;;;;;59.30;3.93;;;;;;;;;;5011287;28;20575;-76
2022/11/27 12:21:57;;;;;;;59.27;4.40;;;;;;;;;;5012226;28;20536;-76
2022/11/27 12:24:33;;;;;;;58.60;3.60;;;;;;;;;;5012214;28;20442;-76
2022/11/27 12:27:08;;;;;;;60.57;4.80;;;;;;;;;;5012003;28;20576;-77
2022/11/27 12:29:46;;;;;;;60.13;4.63;;;;;;;;;;5011186;28;20477;-77
2022/11/27 12:32:22;;;;;;;60.77;4.63;;;;;;;;;;5012190;28;20850;-77
2022/11/27 12:34:54;;;;;;;59.17;4.17;;;;;;;;;;5012027;28;20548;-77
2022/11/27 12:37:29;;;;;;;59.40;4.60;;;;;;;;;;5011974;28;20540;-77
2022/11/27 12:40:04;;;;;;;60.20;4.80;;;;;;;;;;5011025;28;20552;-77
2022/11/27 12:42:34;;;;;;;58.90;4.07;;;;;;;;;;5012007;28;20449;-77
2022/11/27 12:45:05;;;;;;;60.20;4.40;;;;;;;;;;5012066;28;20490;-77
2022/11/27 12:47:35;;;;;;;59.37;4.27;;;;;;;;;;5011759;28;21093;-77
2022/11/27 12:50:05;;;;;;;60.17;5.80;;;;;;;;;;5011014;28;20672;-78
2022/11/27 12:52:35;;;;;;;59.37;4.00;;;;;;;;;;5011451;28;20490;-76
2022/11/27 12:55:05;;;;;;;59.03;3.93;;;;;;;;;;5011839;28;20539;-76
2022/11/27 12:57:35;;;;;;;59.00;3.90;;;;;;;;;;5011777;28;20454;-76
2022/11/27 13:00:06;;;;;;;60.20;4.80;;;;;;;;;;5011219;28;20559;-76
2022/11/27 13:02:35;;;;;;;59.37;4.27;;;;;;;;;;5011993;28;20544;-76
2022/11/27 13:05:05;;;;;;;60.37;4.33;;;;;;;;;;5011561;28;20544;-76
2022/11/27 13:07:38;;;;;;;59.17;4.17;;;;;;;;;;5011833;28;20581;-76
2022/11/27 13:10:10;;;;;;;58.67;3.87;;;;;;;;;;5010719;28;20474;-76
2022/11/27 13:12:40;;;;;;;59.07;3.90;;;;;;;;;;5011642;28;20540;-77
2022/11/27 13:15:14;;;;;;;60.47;4.83;;;;;;;;;;5012043;28;20449;-77
2022/11/27 13:17:43;;;;;;;59.60;4.40;;;;;;;;;;5011583;28;20442;-76
2022/11/27 13:20:15;;;;;;;59.07;4.70;;;;;;;;;;5010995;28;20476;-76
2022/11/27 13:22:43;;;;;;;60.30;4.00;;;;;;;;;;5011697;28;20478;-76
2022/11/27 13:25:13;;;;;;;61.37;5.40;;;;;;;;;;5011608;28;20516;-76
2022/11/27 13:27:41;;;;;;;60.93;5.07;;;;;;;;;;5014949;28;20532;-76
2022/11/27 13:30:19;;;;;;;59.50;4.10;;;;;;;;;;5014354;28;21285;-76
2022/11/27 13:32:49;;;;;;;59.37;4.10;;;;;;;;;;5015293;28;20488;-77
2022/11/27 13:35:20;;;;;;;58.97;3.77;;;;;;;;;;5015389;28;20481;-77
2022/11/27 13:37:49;;;;;;;58.97;3.87;;;;;;;;;;5015070;28;20452;-77
2022/11/27 13:40:19;;;;;;;58.60;3.90;;;;;;;;;;5014462;28;20476;-76
2022/11/27 13:42:49;;;;;;;58.97;3.77;;;;;;;;;;5014854;28;21020;-76
2022/11/27 13:45:23;;;;;;;59.63;4.17;;;;;;;;;;5014808;28;20533;-76
2022/11/27 13:47:51;;;;;;;58.67;4.20;;;;;;;;;;5014803;28;20568;-76
2022/11/27 13:50:19;;;;;;;58.37;3.73;;;;;;;;;;5014189;28;20517;-76
2022/11/27 13:52:56;;;;;;;59.37;4.20;;;;;;;;;;5014556;28;20537;-76
2022/11/27 13:55:25;;;;;;;61.80;4.70;;;;;;;;;;5014816;28;20532;-76
2022/11/27 13:57:53;;;;;;;60.83;5.17;;;;;;;;;;5014581;28;20482;-76
2022/11/27 14:00:31;;;;;;;61.57;4.30;;;;;;;;;;5013813;28;20474;-76
2022/11/27 14:02:58;;;;;;;58.97;4.23;;;;;;;;;;5014519;28;20878;-76
2022/11/27 14:05:35;;;;;;;59.00;4.10;;;;;;;;;;5014394;28;20964;-75
2022/11/27 14:08:02;;;;;;;59.77;4.53;;;;;;;;;;5014441;28;21026;-76
2022/11/27 14:10:31;;;;;;;60.07;3.87;;;;;;;;;;5013669;28;20508;-76
2022/11/27 14:13:00;;;;;;;60.37;4.60;;;;;;;;;;5014402;28;20553;-76
2022/11/27 14:15:30;;;;;;;59.40;4.37;;;;;;;;;;5014327;28;20458;-75
2022/11/27 14:18:07;;;;;;;60.17;4.60;;;;;;;;;;5014085;28;20561;-76
2022/11/27 14:20:36;;;;;;;59.67;4.80;;;;;;;;;;5013417;28;20446;-76
2022/11/27 14:23:03;;;;;;;59.10;4.23;;;;;;;;;;5014363;28;20928;-76
2022/11/27 14:25:31;;;;;;;66.20;4.53;;;;;;;;;;5014088;28;20528;-75
2022/11/27 14:28:00;;;;;;;59.23;4.20;;;;;;;;;;5013910;28;20569;-75